sensor_id;sensor_type;location;lat;lon;timestamp;P1;durP1;ratioP1;P2;durP2;ratioP2
69769;SDS011;57282;52.514;13.458;2022-10-26T00:02:10;11.40;;;5.07;;
69769;SDS011;57282;52.514;13.458;2022-10-26T00:04:37;11.52;;;5.43;;
69769;SDS011;57282;52.514;13.458;2022-10-26T00:07:03;16.33;;;6.53;;
69769;SDS011;57282;52.514;13.458;2022-10-26T00:09:30;11.70;;;5.95;;
69769;SDS011;57282;52.514;13.458;2022-10-26T00:11:58;17.30;;;7.05;;
69769;SDS011;57282;52.514;13.458;2022-10-26T00:14:25;10.60;;;5.47;;
69769;SDS011;57282;52.514;13.458;2022-10-26T00:16:52;12.02;;;6.45;;
69769;SDS011;57282;52.514;13.458;2022-10-26T00:19:19;11.20;;;6.10;;
69769;SDS011;57282;52.514;13.458;2022-10-26T00:21:47;12.57;;;6.32;;
69769;SDS011;57282;52.514;13.458;2022-10-26T00:24:17;12.13;;;5.45;;
69769;SDS011;57282;52.514;13.458;2022-10-26T00:26:43;11.03;;;5.30;;
69769;SDS011;57282;52.514;13.458;2022-10-26T00:29:12;10.55;;;5.15;;
69769;SDS011;57282;52.514;13.458;2022-10-26T00:31:38;14.65;;;6.38;;
69769;SDS011;57282;52.514;13.458;2022-10-26T00:34:05;13.00;;;5.18;;
69769;SDS011;57282;52.514;13.458;2022-10-26T00:36:35;10.32;;;5.05;;
69769;SDS011;57282;52.514;13.458;2022-10-26T00:39:02;13.27;;;5.90;;
69769;SDS011;57282;52.514;13.458;2022-10-26T00:41:30;12.60;;;5.65;;
69769;SDS011;57282;52.514;13.458;2022-10-26T00:43:59;15.68;;;6.47;;
69769;SDS011;57282;52.514;13.458;2022-10-26T00:46:28;13.93;;;5.70;;
69769;SDS011;57282;52.514;13.458;2022-10-26T00:49:00;13.27;;;6.35;;
69769;SDS011;57282;52.514;13.458;2022-10-26T00:51:35;11.63;;;5.90;;
69769;SDS011;57282;52.514;13.458;2022-10-26T00:54:08;10.00;;;5.25;;
69769;SDS011;57282;52.514;13.458;2022-10-26T00:56:42;12.05;;;5.95;;
69769;SDS011;57282;52.514;13.458;2022-10-26T00:59:10;13.15;;;5.10;;
69769;SDS011;57282;52.514;13.458;2022-10-26T01:01:43;11.57;;;6.38;;
69769;SDS011;57282;52.514;13.458;2022-10-26T01:04:12;10.40;;;5.90;;
69769;SDS011;57282;52.514;13.458;2022-10-26T01:06:40;13.57;;;6.10;;
69769;SDS011;57282;52.514;13.458;2022-10-26T01:09:08;11.27;;;5.93;;
69769;SDS011;57282;52.514;13.458;2022-10-26T01:11:37;11.68;;;5.50;;
69769;SDS011;57282;52.514;13.458;2022-10-26T01:14:05;11.80;;;5.70;;
69769;SDS011;57282;52.514;13.458;2022-10-26T01:16:39;12.53;;;5.47;;
69769;SDS011;57282;52.514;13.458;2022-10-26T01:22:40;12.23;;;5.40;;
69769;SDS011;57282;52.514;13.458;2022-10-26T01:25:23;10.98;;;4.88;;
69769;SDS011;57282;52.514;13.458;2022-10-26T01:28:12;9.55;;;5.05;;
69769;SDS011;57282;52.514;13.458;2022-10-26T01:30:57;10.17;;;5.30;;
69769;SDS011;57282;52.514;13.458;2022-10-26T01:33:29;8.65;;;4.53;;
69769;SDS011;57282;52.514;13.458;2022-10-26T01:36:05;9.07;;;4.45;;
69769;SDS011;57282;52.514;13.458;2022-10-26T01:38:41;8.85;;;4.57;;
69769;SDS011;57282;52.514;13.458;2022-10-26T01:41:22;8.98;;;4.85;;
69769;SDS011;57282;52.514;13.458;2022-10-26T01:43:56;12.23;;;4.70;;
69769;SDS011;57282;52.514;13.458;2022-10-26T01:46:31;11.13;;;4.65;;
69769;SDS011;57282;52.514;13.458;2022-10-26T01:49:02;10.50;;;4.80;;
69769;SDS011;57282;52.514;13.458;2022-10-26T01:51:35;11.27;;;4.82;;
69769;SDS011;57282;52.514;13.458;2022-10-26T01:54:05;9.73;;;5.30;;
69769;SDS011;57282;52.514;13.458;2022-10-26T01:56:33;11.67;;;4.83;;
69769;SDS011;57282;52.514;13.458;2022-10-26T01:59:11;9.63;;;5.00;;
69769;SDS011;57282;52.514;13.458;2022-10-26T02:05:18;11.02;;;5.72;;
69769;SDS011;57282;52.514;13.458;2022-10-26T02:08:15;9.75;;;5.10;;
69769;SDS011;57282;52.514;13.458;2022-10-26T02:10:56;11.57;;;5.40;;
69769;SDS011;57282;52.514;13.458;2022-10-26T02:13:38;11.15;;;5.03;;
69769;SDS011;57282;52.514;13.458;2022-10-26T02:16:15;10.77;;;5.55;;
69769;SDS011;57282;52.514;13.458;2022-10-26T02:18:52;13.50;;;5.72;;
69769;SDS011;57282;52.514;13.458;2022-10-26T02:21:28;11.85;;;5.95;;
69769;SDS011;57282;52.514;13.458;2022-10-26T02:24:06;9.47;;;4.80;;
69769;SDS011;57282;52.514;13.458;2022-10-26T02:26:39;11.45;;;5.60;;
69769;SDS011;57282;52.514;13.458;2022-10-26T02:29:10;11.65;;;5.68;;
69769;SDS011;57282;52.514;13.458;2022-10-26T02:31:43;12.13;;;5.97;;
69769;SDS011;57282;52.514;13.458;2022-10-26T02:34:17;10.50;;;5.70;;
69769;SDS011;57282;52.514;13.458;2022-10-26T02:36:50;9.93;;;4.97;;
69769;SDS011;57282;52.514;13.458;2022-10-26T02:39:22;10.85;;;5.30;;
69769;SDS011;57282;52.514;13.458;2022-10-26T02:41:52;12.25;;;5.63;;
69769;SDS011;57282;52.514;13.458;2022-10-26T02:44:22;12.18;;;4.95;;
69769;SDS011;57282;52.514;13.458;2022-10-26T02:46:53;11.18;;;5.22;;
69769;SDS011;57282;52.514;13.458;2022-10-26T02:49:22;12.70;;;5.17;;
69769;SDS011;57282;52.514;13.458;2022-10-26T02:51:51;13.57;;;5.20;;
69769;SDS011;57282;52.514;13.458;2022-10-26T02:54:27;8.70;;;4.90;;
69769;SDS011;57282;52.514;13.458;2022-10-26T02:57:02;10.95;;;4.93;;
69769;SDS011;57282;52.514;13.458;2022-10-26T02:59:39;49.75;;;21.00;;
69769;SDS011;57282;52.514;13.458;2022-10-26T03:02:11;13.90;;;5.63;;
69769;SDS011;57282;52.514;13.458;2022-10-26T03:04:42;10.88;;;4.43;;
69769;SDS011;57282;52.514;13.458;2022-10-26T03:07:09;8.82;;;4.88;;
69769;SDS011;57282;52.514;13.458;2022-10-26T03:09:35;12.55;;;4.88;;
69769;SDS011;57282;52.514;13.458;2022-10-26T03:12:02;8.27;;;4.32;;
69769;SDS011;57282;52.514;13.458;2022-10-26T03:14:30;10.40;;;4.87;;
69769;SDS011;57282;52.514;13.458;2022-10-26T03:16:56;11.32;;;4.70;;
69769;SDS011;57282;52.514;13.458;2022-10-26T03:19:23;8.63;;;4.63;;
69769;SDS011;57282;52.514;13.458;2022-10-26T03:21:51;10.57;;;4.72;;
69769;SDS011;57282;52.514;13.458;2022-10-26T03:24:18;8.80;;;4.85;;
69769;SDS011;57282;52.514;13.458;2022-10-26T03:26:44;8.77;;;4.37;;
69769;SDS011;57282;52.514;13.458;2022-10-26T03:29:11;11.05;;;4.57;;
69769;SDS011;57282;52.514;13.458;2022-10-26T03:31:38;10.77;;;4.55;;
69769;SDS011;57282;52.514;13.458;2022-10-26T03:34:04;12.65;;;4.30;;
69769;SDS011;57282;52.514;13.458;2022-10-26T03:36:31;10.15;;;4.20;;
69769;SDS011;57282;52.514;13.458;2022-10-26T03:38:59;9.97;;;4.10;;
69769;SDS011;57282;52.514;13.458;2022-10-26T03:41:26;10.80;;;4.85;;
69769;SDS011;57282;52.514;13.458;2022-10-26T03:43:52;9.90;;;4.53;;
69769;SDS011;57282;52.514;13.458;2022-10-26T03:46:19;12.60;;;4.28;;
69769;SDS011;57282;52.514;13.458;2022-10-26T03:48:46;10.63;;;5.32;;
69769;SDS011;57282;52.514;13.458;2022-10-26T03:51:12;9.00;;;4.00;;
69769;SDS011;57282;52.514;13.458;2022-10-26T03:53:39;8.38;;;4.40;;
69769;SDS011;57282;52.514;13.458;2022-10-26T03:56:07;10.38;;;3.83;;
69769;SDS011;57282;52.514;13.458;2022-10-26T03:58:34;12.73;;;4.07;;
69769;SDS011;57282;52.514;13.458;2022-10-26T04:01:00;10.88;;;4.43;;
69769;SDS011;57282;52.514;13.458;2022-10-26T04:03:27;8.60;;;4.43;;
69769;SDS011;57282;52.514;13.458;2022-10-26T04:05:53;7.72;;;4.00;;
69769;SDS011;57282;52.514;13.458;2022-10-26T04:08:22;12.05;;;4.88;;
69769;SDS011;57282;52.514;13.458;2022-10-26T04:10:48;9.98;;;4.57;;
69769;SDS011;57282;52.514;13.458;2022-10-26T04:13:16;11.80;;;4.07;;
69769;SDS011;57282;52.514;13.458;2022-10-26T04:15:43;10.13;;;4.23;;
69769;SDS011;57282;52.514;13.458;2022-10-26T04:18:09;10.52;;;4.22;;
69769;SDS011;57282;52.514;13.458;2022-10-26T04:20:37;10.27;;;4.70;;
69769;SDS011;57282;52.514;13.458;2022-10-26T04:23:06;8.27;;;4.22;;
69769;SDS011;57282;52.514;13.458;2022-10-26T04:25:37;9.02;;;4.45;;
69769;SDS011;57282;52.514;13.458;2022-10-26T04:28:04;11.97;;;4.63;;
69769;SDS011;57282;52.514;13.458;2022-10-26T04:30:34;9.70;;;4.07;;
69769;SDS011;57282;52.514;13.458;2022-10-26T04:33:01;9.73;;;4.57;;
69769;SDS011;57282;52.514;13.458;2022-10-26T04:35:28;8.10;;;3.92;;
69769;SDS011;57282;52.514;13.458;2022-10-26T04:37:58;10.10;;;4.68;;
69769;SDS011;57282;52.514;13.458;2022-10-26T04:40:26;10.27;;;4.30;;
69769;SDS011;57282;52.514;13.458;2022-10-26T04:42:53;9.30;;;5.30;;
69769;SDS011;57282;52.514;13.458;2022-10-26T04:45:20;9.40;;;4.70;;
69769;SDS011;57282;52.514;13.458;2022-10-26T04:47:48;9.25;;;4.28;;
69769;SDS011;57282;52.514;13.458;2022-10-26T04:50:25;7.60;;;4.20;;
69769;SDS011;57282;52.514;13.458;2022-10-26T04:52:52;9.50;;;4.23;;
69769;SDS011;57282;52.514;13.458;2022-10-26T04:55:19;9.90;;;5.22;;
69769;SDS011;57282;52.514;13.458;2022-10-26T04:57:46;7.15;;;4.53;;
69769;SDS011;57282;52.514;13.458;2022-10-26T05:00:13;8.27;;;4.00;;
69769;SDS011;57282;52.514;13.458;2022-10-26T05:02:40;10.15;;;4.28;;
69769;SDS011;57282;52.514;13.458;2022-10-26T05:05:08;8.93;;;3.93;;
69769;SDS011;57282;52.514;13.458;2022-10-26T05:07:35;7.55;;;4.00;;
69769;SDS011;57282;52.514;13.458;2022-10-26T05:10:02;9.38;;;4.43;;
69769;SDS011;57282;52.514;13.458;2022-10-26T05:12:30;7.28;;;3.67;;
69769;SDS011;57282;52.514;13.458;2022-10-26T05:14:57;9.20;;;4.18;;
69769;SDS011;57282;52.514;13.458;2022-10-26T05:17:24;9.77;;;3.97;;
69769;SDS011;57282;52.514;13.458;2022-10-26T05:19:50;7.22;;;3.50;;
69769;SDS011;57282;52.514;13.458;2022-10-26T05:22:20;13.00;;;4.10;;
69769;SDS011;57282;52.514;13.458;2022-10-26T05:24:47;8.57;;;4.53;;
69769;SDS011;57282;52.514;13.458;2022-10-26T05:27:14;9.07;;;3.97;;
69769;SDS011;57282;52.514;13.458;2022-10-26T05:29:41;10.17;;;3.73;;
69769;SDS011;57282;52.514;13.458;2022-10-26T05:32:07;8.02;;;3.90;;
69769;SDS011;57282;52.514;13.458;2022-10-26T05:34:34;12.20;;;5.72;;
69769;SDS011;57282;52.514;13.458;2022-10-26T05:37:00;11.02;;;4.82;;
69769;SDS011;57282;52.514;13.458;2022-10-26T05:39:28;12.00;;;5.07;;
69769;SDS011;57282;52.514;13.458;2022-10-26T05:41:55;12.10;;;4.70;;
69769;SDS011;57282;52.514;13.458;2022-10-26T05:44:21;15.20;;;4.82;;
69769;SDS011;57282;52.514;13.458;2022-10-26T05:46:48;11.27;;;4.88;;
69769;SDS011;57282;52.514;13.458;2022-10-26T05:49:15;8.57;;;3.90;;
69769;SDS011;57282;52.514;13.458;2022-10-26T05:51:41;12.43;;;4.60;;
69769;SDS011;57282;52.514;13.458;2022-10-26T05:54:08;14.73;;;5.80;;
69769;SDS011;57282;52.514;13.458;2022-10-26T05:56:36;9.85;;;4.40;;
69769;SDS011;57282;52.514;13.458;2022-10-26T05:59:09;12.82;;;4.82;;
69769;SDS011;57282;52.514;13.458;2022-10-26T06:01:43;11.48;;;5.00;;
69769;SDS011;57282;52.514;13.458;2022-10-26T06:04:29;16.75;;;4.97;;
69769;SDS011;57282;52.514;13.458;2022-10-26T06:07:17;13.97;;;4.53;;
69769;SDS011;57282;52.514;13.458;2022-10-26T06:09:47;8.27;;;4.00;;
69769;SDS011;57282;52.514;13.458;2022-10-26T06:12:16;11.25;;;4.65;;
69769;SDS011;57282;52.514;13.458;2022-10-26T06:14:44;10.43;;;4.13;;
69769;SDS011;57282;52.514;13.458;2022-10-26T06:17:16;12.10;;;4.80;;
69769;SDS011;57282;52.514;13.458;2022-10-26T06:20:04;11.17;;;5.17;;
69769;SDS011;57282;52.514;13.458;2022-10-26T06:22:59;12.90;;;5.00;;
69769;SDS011;57282;52.514;13.458;2022-10-26T06:25:47;20.05;;;5.10;;
69769;SDS011;57282;52.514;13.458;2022-10-26T06:28:30;13.32;;;5.18;;
69769;SDS011;57282;52.514;13.458;2022-10-26T06:31:12;14.18;;;4.93;;
69769;SDS011;57282;52.514;13.458;2022-10-26T06:33:39;9.83;;;4.43;;
69769;SDS011;57282;52.514;13.458;2022-10-26T06:36:10;10.55;;;4.63;;
69769;SDS011;57282;52.514;13.458;2022-10-26T06:38:47;9.13;;;4.40;;
69769;SDS011;57282;52.514;13.458;2022-10-26T06:41:19;11.70;;;4.82;;
69769;SDS011;57282;52.514;13.458;2022-10-26T06:43:49;14.40;;;5.90;;
69769;SDS011;57282;52.514;13.458;2022-10-26T06:46:20;13.83;;;5.20;;
69769;SDS011;57282;52.514;13.458;2022-10-26T06:49:00;9.00;;;5.00;;
69769;SDS011;57282;52.514;13.458;2022-10-26T06:51:40;12.80;;;5.32;;
69769;SDS011;57282;52.514;13.458;2022-10-26T06:54:15;136.38;;;16.55;;
69769;SDS011;57282;52.514;13.458;2022-10-26T06:56:50;71.32;;;12.05;;
69769;SDS011;57282;52.514;13.458;2022-10-26T06:59:24;14.37;;;5.40;;
69769;SDS011;57282;52.514;13.458;2022-10-26T07:02:02;13.52;;;5.60;;
69769;SDS011;57282;52.514;13.458;2022-10-26T07:04:29;12.82;;;5.47;;
69769;SDS011;57282;52.514;13.458;2022-10-26T07:06:56;15.02;;;5.18;;
69769;SDS011;57282;52.514;13.458;2022-10-26T07:09:22;13.18;;;6.43;;
69769;SDS011;57282;52.514;13.458;2022-10-26T07:11:49;13.47;;;5.70;;
69769;SDS011;57282;52.514;13.458;2022-10-26T07:14:16;13.35;;;5.68;;
69769;SDS011;57282;52.514;13.458;2022-10-26T07:16:43;15.68;;;7.93;;
69769;SDS011;57282;52.514;13.458;2022-10-26T07:19:10;19.15;;;5.68;;
69769;SDS011;57282;52.514;13.458;2022-10-26T07:21:37;17.25;;;5.97;;
69769;SDS011;57282;52.514;13.458;2022-10-26T07:24:04;18.03;;;6.00;;
69769;SDS011;57282;52.514;13.458;2022-10-26T07:26:31;13.15;;;5.88;;
69769;SDS011;57282;52.514;13.458;2022-10-26T07:28:57;17.35;;;6.90;;
69769;SDS011;57282;52.514;13.458;2022-10-26T07:31:24;14.13;;;7.25;;
69769;SDS011;57282;52.514;13.458;2022-10-26T07:33:53;13.90;;;7.30;;
69769;SDS011;57282;52.514;13.458;2022-10-26T07:36:20;15.77;;;7.23;;
69769;SDS011;57282;52.514;13.458;2022-10-26T07:38:49;13.68;;;7.15;;
69769;SDS011;57282;52.514;13.458;2022-10-26T07:41:18;15.43;;;7.15;;
69769;SDS011;57282;52.514;13.458;2022-10-26T07:43:45;13.85;;;6.68;;
69769;SDS011;57282;52.514;13.458;2022-10-26T07:46:13;16.15;;;7.50;;
69769;SDS011;57282;52.514;13.458;2022-10-26T07:48:40;18.37;;;7.27;;
69769;SDS011;57282;52.514;13.458;2022-10-26T07:51:08;14.77;;;6.90;;
69769;SDS011;57282;52.514;13.458;2022-10-26T07:53:35;16.25;;;6.97;;
69769;SDS011;57282;52.514;13.458;2022-10-26T07:56:02;16.40;;;8.27;;
69769;SDS011;57282;52.514;13.458;2022-10-26T07:58:29;13.23;;;7.13;;
69769;SDS011;57282;52.514;13.458;2022-10-26T08:00:55;13.77;;;6.73;;
69769;SDS011;57282;52.514;13.458;2022-10-26T08:03:22;14.27;;;6.70;;
69769;SDS011;57282;52.514;13.458;2022-10-26T08:05:49;15.57;;;6.18;;
69769;SDS011;57282;52.514;13.458;2022-10-26T08:08:21;11.52;;;6.50;;
69769;SDS011;57282;52.514;13.458;2022-10-26T08:10:47;16.88;;;6.15;;
69769;SDS011;57282;52.514;13.458;2022-10-26T08:13:15;12.93;;;5.73;;
69769;SDS011;57282;52.514;13.458;2022-10-26T08:15:41;14.25;;;5.65;;
69769;SDS011;57282;52.514;13.458;2022-10-26T08:18:08;11.75;;;6.03;;
69769;SDS011;57282;52.514;13.458;2022-10-26T08:20:35;9.68;;;5.00;;
69769;SDS011;57282;52.514;13.458;2022-10-26T08:23:01;14.07;;;5.10;;
69769;SDS011;57282;52.514;13.458;2022-10-26T08:25:31;10.53;;;5.20;;
69769;SDS011;57282;52.514;13.458;2022-10-26T08:27:59;11.88;;;5.20;;
69769;SDS011;57282;52.514;13.458;2022-10-26T08:30:27;14.55;;;7.25;;
69769;SDS011;57282;52.514;13.458;2022-10-26T08:32:57;15.32;;;7.32;;
69769;SDS011;57282;52.514;13.458;2022-10-26T08:35:25;11.13;;;5.82;;
69769;SDS011;57282;52.514;13.458;2022-10-26T08:37:54;12.40;;;4.90;;
69769;SDS011;57282;52.514;13.458;2022-10-26T08:40:27;13.95;;;6.20;;
69769;SDS011;57282;52.514;13.458;2022-10-26T08:43:01;15.93;;;5.97;;
69769;SDS011;57282;52.514;13.458;2022-10-26T08:45:37;17.73;;;6.90;;
69769;SDS011;57282;52.514;13.458;2022-10-26T08:48:11;17.23;;;7.93;;
69769;SDS011;57282;52.514;13.458;2022-10-26T08:50:45;23.77;;;11.43;;
69769;SDS011;57282;52.514;13.458;2022-10-26T08:53:19;15.68;;;7.35;;
69769;SDS011;57282;52.514;13.458;2022-10-26T08:55:58;17.83;;;7.57;;
69769;SDS011;57282;52.514;13.458;2022-10-26T08:58:35;19.33;;;8.50;;
69769;SDS011;57282;52.514;13.458;2022-10-26T09:01:10;21.80;;;11.38;;
69769;SDS011;57282;52.514;13.458;2022-10-26T09:03:37;16.07;;;8.13;;
69769;SDS011;57282;52.514;13.458;2022-10-26T09:06:08;15.85;;;7.38;;
69769;SDS011;57282;52.514;13.458;2022-10-26T09:08:51;6.85;;;3.40;;
69769;SDS011;57282;52.514;13.458;2022-10-26T09:11:34;7.13;;;3.60;;
69769;SDS011;57282;52.514;13.458;2022-10-26T09:14:22;9.40;;;3.67;;
69769;SDS011;57282;52.514;13.458;2022-10-26T09:17:07;8.57;;;3.83;;
69769;SDS011;57282;52.514;13.458;2022-10-26T09:19:58;8.70;;;5.05;;
69769;SDS011;57282;52.514;13.458;2022-10-26T09:22:56;11.07;;;5.82;;
69769;SDS011;57282;52.514;13.458;2022-10-26T09:25:37;15.68;;;6.28;;
69769;SDS011;57282;52.514;13.458;2022-10-26T09:28:08;12.45;;;6.45;;
69769;SDS011;57282;52.514;13.458;2022-10-26T09:30:44;15.93;;;6.70;;
69769;SDS011;57282;52.514;13.458;2022-10-26T09:33:15;15.27;;;7.18;;
69769;SDS011;57282;52.514;13.458;2022-10-26T09:35:45;25.85;;;11.95;;
69769;SDS011;57282;52.514;13.458;2022-10-26T09:38:19;11.13;;;4.00;;
69769;SDS011;57282;52.514;13.458;2022-10-26T09:40:55;7.40;;;3.15;;
69769;SDS011;57282;52.514;13.458;2022-10-26T09:43:30;12.53;;;3.83;;
69769;SDS011;57282;52.514;13.458;2022-10-26T09:46:06;12.85;;;6.30;;
69769;SDS011;57282;52.514;13.458;2022-10-26T09:48:41;8.85;;;5.10;;
69769;SDS011;57282;52.514;13.458;2022-10-26T09:51:14;14.23;;;6.25;;
69769;SDS011;57282;52.514;13.458;2022-10-26T09:53:42;10.43;;;5.72;;
69769;SDS011;57282;52.514;13.458;2022-10-26T09:56:13;14.07;;;6.07;;
69769;SDS011;57282;52.514;13.458;2022-10-26T09:58:53;13.48;;;6.18;;
69769;SDS011;57282;52.514;13.458;2022-10-26T10:01:31;13.73;;;6.00;;
69769;SDS011;57282;52.514;13.458;2022-10-26T10:04:17;13.88;;;6.68;;
69769;SDS011;57282;52.514;13.458;2022-10-26T10:06:47;16.30;;;6.50;;
69769;SDS011;57282;52.514;13.458;2022-10-26T10:09:16;15.87;;;5.53;;
69769;SDS011;57282;52.514;13.458;2022-10-26T10:11:45;14.43;;;6.18;;
69769;SDS011;57282;52.514;13.458;2022-10-26T10:14:20;10.02;;;5.63;;
69769;SDS011;57282;52.514;13.458;2022-10-26T10:16:53;15.52;;;6.57;;
69769;SDS011;57282;52.514;13.458;2022-10-26T10:19:23;10.20;;;5.15;;
69769;SDS011;57282;52.514;13.458;2022-10-26T10:21:55;10.70;;;5.97;;
69769;SDS011;57282;52.514;13.458;2022-10-26T10:24:25;9.70;;;5.75;;
69769;SDS011;57282;52.514;13.458;2022-10-26T10:26:55;8.98;;;4.97;;
69769;SDS011;57282;52.514;13.458;2022-10-26T10:29:25;15.50;;;4.93;;
69769;SDS011;57282;52.514;13.458;2022-10-26T10:31:57;11.15;;;5.57;;
69769;SDS011;57282;52.514;13.458;2022-10-26T10:34:25;12.07;;;5.20;;
69769;SDS011;57282;52.514;13.458;2022-10-26T10:36:55;7.75;;;4.05;;
69769;SDS011;57282;52.514;13.458;2022-10-26T10:39:26;14.57;;;4.68;;
69769;SDS011;57282;52.514;13.458;2022-10-26T10:42:04;10.18;;;4.18;;
69769;SDS011;57282;52.514;13.458;2022-10-26T10:44:42;7.30;;;3.03;;
69769;SDS011;57282;52.514;13.458;2022-10-26T10:47:18;6.63;;;2.60;;
69769;SDS011;57282;52.514;13.458;2022-10-26T10:49:50;11.10;;;3.28;;
69769;SDS011;57282;52.514;13.458;2022-10-26T10:52:21;6.28;;;2.47;;
69769;SDS011;57282;52.514;13.458;2022-10-26T10:54:53;8.82;;;4.70;;
69769;SDS011;57282;52.514;13.458;2022-10-26T10:57:43;6.72;;;3.08;;
69769;SDS011;57282;52.514;13.458;2022-10-26T11:00:31;5.50;;;1.97;;
69769;SDS011;57282;52.514;13.458;2022-10-26T11:03:17;6.13;;;2.03;;
69769;SDS011;57282;52.514;13.458;2022-10-26T11:08:49;5.88;;;1.58;;
69769;SDS011;57282;52.514;13.458;2022-10-26T11:11:24;32.83;;;8.15;;
69769;SDS011;57282;52.514;13.458;2022-10-26T11:13:58;12.03;;;2.83;;
69769;SDS011;57282;52.514;13.458;2022-10-26T11:16:32;10.90;;;2.83;;
69769;SDS011;57282;52.514;13.458;2022-10-26T11:19:07;10.27;;;3.28;;
69769;SDS011;57282;52.514;13.458;2022-10-26T11:21:46;5.13;;;2.50;;
69769;SDS011;57282;52.514;13.458;2022-10-26T11:24:19;8.90;;;2.20;;
69769;SDS011;57282;52.514;13.458;2022-10-26T11:26:52;6.17;;;2.10;;
69769;SDS011;57282;52.514;13.458;2022-10-26T11:29:28;6.07;;;1.95;;
69769;SDS011;57282;52.514;13.458;2022-10-26T11:32:06;7.25;;;2.00;;
69769;SDS011;57282;52.514;13.458;2022-10-26T11:34:45;8.77;;;2.05;;
69769;SDS011;57282;52.514;13.458;2022-10-26T11:37:21;9.70;;;1.98;;
69769;SDS011;57282;52.514;13.458;2022-10-26T11:40:02;12.77;;;3.50;;
69769;SDS011;57282;52.514;13.458;2022-10-26T11:42:47;12.05;;;4.18;;
69769;SDS011;57282;52.514;13.458;2022-10-26T11:45:24;12.68;;;3.40;;
69769;SDS011;57282;52.514;13.458;2022-10-26T11:47:56;7.68;;;2.42;;
69769;SDS011;57282;52.514;13.458;2022-10-26T11:50:37;11.30;;;2.05;;
69769;SDS011;57282;52.514;13.458;2022-10-26T11:53:11;6.47;;;1.67;;
69769;SDS011;57282;52.514;13.458;2022-10-26T11:55:42;7.28;;;2.25;;
69769;SDS011;57282;52.514;13.458;2022-10-26T11:58:15;6.45;;;1.98;;
69769;SDS011;57282;52.514;13.458;2022-10-26T12:00:43;4.60;;;2.00;;
69769;SDS011;57282;52.514;13.458;2022-10-26T12:03:16;6.03;;;2.22;;
69769;SDS011;57282;52.514;13.458;2022-10-26T12:05:50;13.40;;;4.77;;
69769;SDS011;57282;52.514;13.458;2022-10-26T12:08:19;8.48;;;2.78;;
69769;SDS011;57282;52.514;13.458;2022-10-26T12:10:56;8.02;;;2.78;;
69769;SDS011;57282;52.514;13.458;2022-10-26T12:13:34;7.07;;;2.72;;
69769;SDS011;57282;52.514;13.458;2022-10-26T12:16:09;6.85;;;2.05;;
69769;SDS011;57282;52.514;13.458;2022-10-26T12:18:49;9.80;;;2.97;;
69769;SDS011;57282;52.514;13.458;2022-10-26T12:21:26;6.90;;;1.80;;
69769;SDS011;57282;52.514;13.458;2022-10-26T12:23:56;8.77;;;2.22;;
69769;SDS011;57282;52.514;13.458;2022-10-26T12:41:26;5.97;;;1.88;;
69769;SDS011;57282;52.514;13.458;2022-10-26T12:43:57;10.27;;;1.80;;
69769;SDS011;57282;52.514;13.458;2022-10-26T12:46:53;5.87;;;1.10;;
69769;SDS011;57282;52.514;13.458;2022-10-26T12:55:20;4.00;;;1.40;;
69769;SDS011;57282;52.514;13.458;2022-10-26T12:58:31;5.78;;;1.25;;
69769;SDS011;57282;52.514;13.458;2022-10-26T13:05:00;4.45;;;1.02;;
69769;SDS011;57282;52.514;13.458;2022-10-26T13:08:05;4.95;;;1.40;;
69769;SDS011;57282;52.514;13.458;2022-10-26T13:10:36;3.58;;;0.98;;
69769;SDS011;57282;52.514;13.458;2022-10-26T13:13:19;3.95;;;1.50;;
69769;SDS011;57282;52.514;13.458;2022-10-26T13:15:58;5.30;;;1.10;;
69769;SDS011;57282;52.514;13.458;2022-10-26T13:18:35;4.25;;;1.60;;
69769;SDS011;57282;52.514;13.458;2022-10-26T13:21:20;5.28;;;1.58;;
69769;SDS011;57282;52.514;13.458;2022-10-26T13:23:56;6.20;;;1.50;;
69769;SDS011;57282;52.514;13.458;2022-10-26T13:27:20;4.95;;;1.40;;
69769;SDS011;57282;52.514;13.458;2022-10-26T13:30:21;15.27;;;1.87;;
69769;SDS011;57282;52.514;13.458;2022-10-26T13:33:19;10.82;;;2.17;;
69769;SDS011;57282;52.514;13.458;2022-10-26T13:36:05;5.00;;;2.08;;
69769;SDS011;57282;52.514;13.458;2022-10-26T13:38:54;8.65;;;1.52;;
69769;SDS011;57282;52.514;13.458;2022-10-26T13:41:37;7.47;;;2.53;;
69769;SDS011;57282;52.514;13.458;2022-10-26T13:44:15;4.07;;;1.80;;
69769;SDS011;57282;52.514;13.458;2022-10-26T13:46:58;6.30;;;2.58;;
69769;SDS011;57282;52.514;13.458;2022-10-26T13:49:41;7.00;;;3.50;;
69769;SDS011;57282;52.514;13.458;2022-10-26T13:52:13;8.35;;;3.85;;
69769;SDS011;57282;52.514;13.458;2022-10-26T13:54:46;5.75;;;2.30;;
69769;SDS011;57282;52.514;13.458;2022-10-26T13:57:20;6.80;;;1.53;;
69769;SDS011;57282;52.514;13.458;2022-10-26T13:59:54;7.68;;;1.98;;
69769;SDS011;57282;52.514;13.458;2022-10-26T14:02:27;6.47;;;2.40;;
69769;SDS011;57282;52.514;13.458;2022-10-26T14:04:59;10.65;;;2.28;;
69769;SDS011;57282;52.514;13.458;2022-10-26T14:07:30;8.25;;;2.40;;
69769;SDS011;57282;52.514;13.458;2022-10-26T14:10:05;5.30;;;1.73;;
69769;SDS011;57282;52.514;13.458;2022-10-26T14:12:32;9.35;;;1.90;;
69769;SDS011;57282;52.514;13.458;2022-10-26T14:15:01;7.75;;;2.60;;
69769;SDS011;57282;52.514;13.458;2022-10-26T14:17:32;8.23;;;3.78;;
69769;SDS011;57282;52.514;13.458;2022-10-26T14:20:01;8.60;;;3.72;;
69769;SDS011;57282;52.514;13.458;2022-10-26T14:22:29;7.73;;;2.90;;
69769;SDS011;57282;52.514;13.458;2022-10-26T14:24:56;9.25;;;2.72;;
69769;SDS011;57282;52.514;13.458;2022-10-26T14:27:26;8.77;;;3.10;;
69769;SDS011;57282;52.514;13.458;2022-10-26T14:29:58;7.85;;;4.00;;
69769;SDS011;57282;52.514;13.458;2022-10-26T14:32:27;11.02;;;5.60;;
69769;SDS011;57282;52.514;13.458;2022-10-26T14:34:57;14.63;;;6.57;;
69769;SDS011;57282;52.514;13.458;2022-10-26T14:37:28;10.07;;;4.53;;
69769;SDS011;57282;52.514;13.458;2022-10-26T14:40:05;10.95;;;4.60;;
69769;SDS011;57282;52.514;13.458;2022-10-26T14:42:39;11.38;;;3.60;;
69769;SDS011;57282;52.514;13.458;2022-10-26T14:45:24;10.73;;;3.00;;
69769;SDS011;57282;52.514;13.458;2022-10-26T14:47:56;9.70;;;2.30;;
69769;SDS011;57282;52.514;13.458;2022-10-26T14:50:24;5.00;;;1.90;;
69769;SDS011;57282;52.514;13.458;2022-10-26T14:52:58;9.10;;;2.85;;
69769;SDS011;57282;52.514;13.458;2022-10-26T14:55:29;7.75;;;2.17;;
69769;SDS011;57282;52.514;13.458;2022-10-26T14:58:13;9.27;;;2.47;;
69769;SDS011;57282;52.514;13.458;2022-10-26T15:00:45;7.17;;;2.20;;
69769;SDS011;57282;52.514;13.458;2022-10-26T15:03:13;5.88;;;2.42;;
69769;SDS011;57282;52.514;13.458;2022-10-26T15:05:42;6.53;;;2.22;;
69769;SDS011;57282;52.514;13.458;2022-10-26T15:11:11;8.18;;;2.75;;
69769;SDS011;57282;52.514;13.458;2022-10-26T15:13:39;10.27;;;3.47;;
69769;SDS011;57282;52.514;13.458;2022-10-26T15:16:08;8.52;;;3.25;;
69769;SDS011;57282;52.514;13.458;2022-10-26T15:18:42;7.22;;;3.13;;
69769;SDS011;57282;52.514;13.458;2022-10-26T15:21:18;7.93;;;3.40;;
69769;SDS011;57282;52.514;13.458;2022-10-26T15:23:51;8.65;;;4.07;;
69769;SDS011;57282;52.514;13.458;2022-10-26T15:26:19;12.80;;;5.10;;
69769;SDS011;57282;52.514;13.458;2022-10-26T15:28:46;15.40;;;5.50;;
69769;SDS011;57282;52.514;13.458;2022-10-26T15:31:30;11.00;;;6.05;;
69769;SDS011;57282;52.514;13.458;2022-10-26T15:34:06;12.07;;;6.00;;
69769;SDS011;57282;52.514;13.458;2022-10-26T15:36:39;14.88;;;6.40;;